sensor_id;sensor_type;location;lat;lon;timestamp;pressure;altitude;pressure_sealevel;temperature;humidity
44138;BME280;29800;55.942;37.314;2022-10-13T00:00:44;99977.19;;;9.88;60.35
44138;BME280;29800;55.942;37.314;2022-10-13T00:03:11;99973.75;;;9.81;60.53
44138;BME280;29800;55.942;37.314;2022-10-13T00:05:42;99984.47;;;9.83;61.12
44138;BME280;29800;55.942;37.314;2022-10-13T00:08:09;99979.38;;;9.74;60.86
44138;BME280;29800;55.942;37.314;2022-10-13T00:10:41;99984.47;;;9.71;60.75
44138;BME280;29800;55.942;37.314;2022-10-13T00:13:11;99983.28;;;9.67;61.07
44138;BME280;29800;55.942;37.314;2022-10-13T00:15:39;99980.19;;;9.63;60.66
44138;BME280;29800;55.942;37.314;2022-10-13T00:18:05;99987.81;;;9.61;60.66
44138;BME280;29800;55.942;37.314;2022-10-13T00:20:33;99983.88;;;9.57;60.71
44138;BME280;29800;55.942;37.314;2022-10-13T00:22:59;99984.72;;;9.57;60.50
44138;BME280;29800;55.942;37.314;2022-10-13T00:25:25;99977.22;;;9.53;60.68
44138;BME280;29800;55.942;37.314;2022-10-13T00:27:51;99981.97;;;9.46;61.37
44138;BME280;29800;55.942;37.314;2022-10-13T00:30:19;99984.69;;;9.46;61.02
44138;BME280;29800;55.942;37.314;2022-10-13T00:32:46;99981.50;;;9.37;61.02
44138;BME280;29800;55.942;37.314;2022-10-13T00:35:12;99983.88;;;9.33;61.15
44138;BME280;29800;55.942;37.314;2022-10-13T00:37:38;99989.81;;;9.30;60.74
44138;BME280;29800;55.942;37.314;2022-10-13T00:40:04;99985.63;;;9.28;61.13
44138;BME280;29800;55.942;37.314;2022-10-13T00:42:32;99989.09;;;9.23;61.08
44138;BME280;29800;55.942;37.314;2022-10-13T00:45:06;99996.19;;;9.24;61.06
44138;BME280;29800;55.942;37.314;2022-10-13T00:47:45;99991.66;;;9.18;60.74
44138;BME280;29800;55.942;37.314;2022-10-13T00:50:34;99994.06;;;9.26;60.31
44138;BME280;29800;55.942;37.314;2022-10-13T00:53:04;99997.00;;;9.13;60.91
44138;BME280;29800;55.942;37.314;2022-10-13T00:55:33;99996.41;;;9.11;61.06
44138;BME280;29800;55.942;37.314;2022-10-13T00:58:01;100004.84;;;9.09;60.38
44138;BME280;29800;55.942;37.314;2022-10-13T01:00:29;100004.72;;;9.04;60.50
44138;BME280;29800;55.942;37.314;2022-10-13T01:02:55;100008.72;;;9.01;60.55
44138;BME280;29800;55.942;37.314;2022-10-13T01:05:22;100001.63;;;9.00;60.72
44138;BME280;29800;55.942;37.314;2022-10-13T01:07:52;100005.88;;;8.96;61.19
44138;BME280;29800;55.942;37.314;2022-10-13T01:10:28;100011.91;;;8.98;60.54
44138;BME280;29800;55.942;37.314;2022-10-13T01:13:40;100003.25;;;9.01;60.91
44138;BME280;29800;55.942;37.314;2022-10-13T01:16:31;100009.19;;;8.98;61.32
44138;BME280;29800;55.942;37.314;2022-10-13T01:22:20;100000.88;;;8.93;60.84
44138;BME280;29800;55.942;37.314;2022-10-13T01:30:16;100008.22;;;8.81;61.08
44138;BME280;29800;55.942;37.314;2022-10-13T01:40:59;100009.13;;;8.75;61.57
44138;BME280;29800;55.942;37.314;2022-10-13T01:43:30;100014.22;;;8.71;62.22
44138;BME280;29800;55.942;37.314;2022-10-13T01:48:35;100021.31;;;8.72;61.91
44138;BME280;29800;55.942;37.314;2022-10-13T01:51:04;100015.03;;;8.72;61.97
44138;BME280;29800;55.942;37.314;2022-10-13T01:53:33;100007.94;;;8.71;62.45
44138;BME280;29800;55.942;37.314;2022-10-13T01:55:59;100013.75;;;8.74;62.33
44138;BME280;29800;55.942;37.314;2022-10-13T01:58:29;100009.94;;;8.75;62.37
44138;BME280;29800;55.942;37.314;2022-10-13T02:06:27;100013.19;;;8.84;62.50
44138;BME280;29800;55.942;37.314;2022-10-13T02:09:13;100013.06;;;8.79;61.89
44138;BME280;29800;55.942;37.314;2022-10-13T02:12:04;100002.28;;;8.84;62.06
44138;BME280;29800;55.942;37.314;2022-10-13T02:14:35;100009.84;;;8.82;61.57
44138;BME280;29800;55.942;37.314;2022-10-13T02:17:04;100018.38;;;8.74;61.24
44138;BME280;29800;55.942;37.314;2022-10-13T02:19:35;100020.53;;;8.53;61.99
44138;BME280;29800;55.942;37.314;2022-10-13T02:22:03;100019.41;;;8.24;62.24
44138;BME280;29800;55.942;37.314;2022-10-13T02:24:30;100022.22;;;7.99;63.14
44138;BME280;29800;55.942;37.314;2022-10-13T02:26:57;100025.34;;;7.77;63.90
44138;BME280;29800;55.942;37.314;2022-10-13T02:29:23;100033.47;;;7.59;64.51
44138;BME280;29800;55.942;37.314;2022-10-13T02:31:49;100035.72;;;7.43;65.79
44138;BME280;29800;55.942;37.314;2022-10-13T02:34:15;100027.84;;;7.35;66.90
44138;BME280;29800;55.942;37.314;2022-10-13T02:36:45;100033.59;;;7.20;67.15
44138;BME280;29800;55.942;37.314;2022-10-13T02:39:11;100033.44;;;7.08;67.27
44138;BME280;29800;55.942;37.314;2022-10-13T02:41:38;100037.50;;;6.99;68.34
44138;BME280;29800;55.942;37.314;2022-10-13T02:44:04;100033.97;;;6.92;68.84
44138;BME280;29800;55.942;37.314;2022-10-13T02:46:35;100025.66;;;6.87;69.38
44138;BME280;29800;55.942;37.314;2022-10-13T02:49:01;100027.16;;;6.83;70.04
44138;BME280;29800;55.942;37.314;2022-10-13T02:51:28;100025.91;;;6.78;69.92
44138;BME280;29800;55.942;37.314;2022-10-13T02:53:54;100029.91;;;6.76;70.16
44138;BME280;29800;55.942;37.314;2022-10-13T02:56:20;100033.06;;;6.73;70.44
44138;BME280;29800;55.942;37.314;2022-10-13T02:58:46;100029.72;;;6.71;71.01
44138;BME280;29800;55.942;37.314;2022-10-13T03:01:13;100031.59;;;6.70;71.64
44138;BME280;29800;55.942;37.314;2022-10-13T03:03:40;100039.16;;;6.68;71.49
44138;BME280;29800;55.942;37.314;2022-10-13T03:06:06;100030.78;;;6.70;71.64
44138;BME280;29800;55.942;37.314;2022-10-13T03:08:34;100033.09;;;6.66;71.59
44138;BME280;29800;55.942;37.314;2022-10-13T03:11:00;100028.69;;;6.65;72.21
44138;BME280;29800;55.942;37.314;2022-10-13T03:13:26;100035.22;;;6.64;71.75
44138;BME280;29800;55.942;37.314;2022-10-13T03:15:52;100038.16;;;6.62;71.78
44138;BME280;29800;55.942;37.314;2022-10-13T03:18:18;100031.03;;;6.61;72.48
44138;BME280;29800;55.942;37.314;2022-10-13T03:20:54;100037.06;;;6.63;72.73
44138;BME280;29800;55.942;37.314;2022-10-13T03:23:21;100029.13;;;6.62;72.78
44138;BME280;29800;55.942;37.314;2022-10-13T03:25:47;100031.03;;;6.61;73.04
44138;BME280;29800;55.942;37.314;2022-10-13T03:28:13;100041.69;;;6.63;72.85
44138;BME280;29800;55.942;37.314;2022-10-13T03:30:39;100039.19;;;6.61;72.54
44138;BME280;29800;55.942;37.314;2022-10-13T03:33:05;100037.13;;;6.57;72.69
44138;BME280;29800;55.942;37.314;2022-10-13T03:35:31;100052.00;;;6.54;72.86
44138;BME280;29800;55.942;37.314;2022-10-13T03:37:57;100053.03;;;6.53;73.04
44138;BME280;29800;55.942;37.314;2022-10-13T03:40:23;100047.19;;;6.50;73.30
44138;BME280;29800;55.942;37.314;2022-10-13T03:42:49;100057.44;;;6.48;73.19
44138;BME280;29800;55.942;37.314;2022-10-13T03:45:15;100049.72;;;6.44;73.24
44138;BME280;29800;55.942;37.314;2022-10-13T03:47:41;100053.06;;;6.47;73.45
44138;BME280;29800;55.942;37.314;2022-10-13T03:50:09;100059.75;;;6.44;73.69
44138;BME280;29800;55.942;37.314;2022-10-13T03:52:35;100063.13;;;6.39;73.20
44138;BME280;29800;55.942;37.314;2022-10-13T03:55:01;100065.66;;;6.34;73.23
44138;BME280;29800;55.942;37.314;2022-10-13T03:57:29;100066.94;;;6.32;73.69
44138;BME280;29800;55.942;37.314;2022-10-13T03:59:55;100071.50;;;6.31;73.55
44138;BME280;29800;55.942;37.314;2022-10-13T04:02:27;100069.44;;;6.33;73.24
44138;BME280;29800;55.942;37.314;2022-10-13T04:04:54;100076.72;;;6.33;73.82
44138;BME280;29800;55.942;37.314;2022-10-13T04:07:20;100076.94;;;6.31;73.63
44138;BME280;29800;55.942;37.314;2022-10-13T04:09:46;100075.28;;;6.30;73.79
44138;BME280;29800;55.942;37.314;2022-10-13T04:12:12;100078.63;;;6.32;73.92
44138;BME280;29800;55.942;37.314;2022-10-13T04:14:38;100073.19;;;6.32;73.68
44138;BME280;29800;55.942;37.314;2022-10-13T04:17:07;100078.63;;;6.32;74.44
44138;BME280;29800;55.942;37.314;2022-10-13T04:19:33;100074.88;;;6.33;74.42
44138;BME280;29800;55.942;37.314;2022-10-13T04:22:04;100067.75;;;6.32;73.87
44138;BME280;29800;55.942;37.314;2022-10-13T04:24:30;100064.41;;;6.30;74.32
44138;BME280;29800;55.942;37.314;2022-10-13T04:26:56;100067.34;;;6.29;74.89
44138;BME280;29800;55.942;37.314;2022-10-13T04:29:23;100073.63;;;6.29;74.46
44138;BME280;29800;55.942;37.314;2022-10-13T04:31:51;100079.06;;;6.29;74.53
44138;BME280;29800;55.942;37.314;2022-10-13T04:34:17;100079.06;;;6.29;74.48
44138;BME280;29800;55.942;37.314;2022-10-13T04:36:43;100065.91;;;6.71;76.43
44138;BME280;29800;55.942;37.314;2022-10-13T04:39:09;100067.06;;;7.52;79.04
44138;BME280;29800;55.942;37.314;2022-10-13T04:41:35;100072.38;;;8.53;78.30
44138;BME280;29800;55.942;37.314;2022-10-13T04:44:01;100062.75;;;9.53;75.23
44138;BME280;29800;55.942;37.314;2022-10-13T04:46:27;100071.44;;;10.45;71.75
44138;BME280;29800;55.942;37.314;2022-10-13T04:48:56;100060.56;;;11.19;68.20
44138;BME280;29800;55.942;37.314;2022-10-13T04:51:28;100061.84;;;11.80;65.98
44138;BME280;29800;55.942;37.314;2022-10-13T04:53:58;100068.38;;;12.29;63.29
44138;BME280;29800;55.942;37.314;2022-10-13T04:56:26;100060.09;;;12.68;62.17
44138;BME280;29800;55.942;37.314;2022-10-13T04:58:52;100070.34;;;13.00;61.15
44138;BME280;29800;55.942;37.314;2022-10-13T05:01:20;100068.03;;;13.41;59.74
44138;BME280;29800;55.942;37.314;2022-10-13T05:03:53;100069.44;;;13.76;58.17
44138;BME280;29800;55.942;37.314;2022-10-13T05:06:22;100072.97;;;14.09;56.96
44138;BME280;29800;55.942;37.314;2022-10-13T05:08:55;100073.13;;;14.35;56.19
44138;BME280;29800;55.942;37.314;2022-10-13T05:11:22;100082.84;;;14.53;55.42
44138;BME280;29800;55.942;37.314;2022-10-13T05:13:49;100082.13;;;14.73;54.41
44138;BME280;29800;55.942;37.314;2022-10-13T05:16:17;100076.63;;;14.78;53.78
44138;BME280;29800;55.942;37.314;2022-10-13T05:18:44;100077.81;;;14.98;53.33
44138;BME280;29800;55.942;37.314;2022-10-13T05:21:13;100079.78;;;15.18;52.74
44138;BME280;29800;55.942;37.314;2022-10-13T05:23:39;100086.72;;;15.41;51.93
44138;BME280;29800;55.942;37.314;2022-10-13T05:26:09;100082.88;;;15.52;51.08
44138;BME280;29800;55.942;37.314;2022-10-13T05:28:36;100088.38;;;15.62;51.02
44138;BME280;29800;55.942;37.314;2022-10-13T05:33:39;100082.03;;;15.72;50.29
44138;BME280;29800;55.942;37.314;2022-10-13T05:36:10;100083.72;;;15.63;50.16
44138;BME280;29800;55.942;37.314;2022-10-13T05:38:37;100080.69;;;15.70;50.29
44138;BME280;29800;55.942;37.314;2022-10-13T05:41:06;100094.75;;;15.63;49.75
44138;BME280;29800;55.942;37.314;2022-10-13T05:43:32;100089.78;;;15.65;50.25
44138;BME280;29800;55.942;37.314;2022-10-13T05:45:59;100082.78;;;15.01;48.31
44138;BME280;29800;55.942;37.314;2022-10-13T05:48:28;100084.50;;;15.33;50.16
44138;BME280;29800;55.942;37.314;2022-10-13T05:50:56;100094.44;;;15.23;49.09
44138;BME280;29800;55.942;37.314;2022-10-13T05:53:27;100091.13;;;15.32;48.83
44138;BME280;29800;55.942;37.314;2022-10-13T05:55:55;100090.19;;;14.95;47.52
44138;BME280;29800;55.942;37.314;2022-10-13T05:58:23;100095.41;;;14.92;46.67
44138;BME280;29800;55.942;37.314;2022-10-13T06:00:50;100095.53;;;15.33;49.37
44138;BME280;29800;55.942;37.314;2022-10-13T06:03:18;100092.81;;;15.58;49.54
44138;BME280;29800;55.942;37.314;2022-10-13T06:05:47;100103.03;;;15.68;48.88
44138;BME280;29800;55.942;37.314;2022-10-13T06:08:14;100095.03;;;15.77;49.34
44138;BME280;29800;55.942;37.314;2022-10-13T06:10:42;100096.72;;;15.78;49.19
44138;BME280;29800;55.942;37.314;2022-10-13T06:13:09;100092.88;;;15.79;48.95
44138;BME280;29800;55.942;37.314;2022-10-13T06:15:34;100094.50;;;15.80;49.09
44138;BME280;29800;55.942;37.314;2022-10-13T06:18:01;100097.25;;;15.85;48.91
44138;BME280;29800;55.942;37.314;2022-10-13T06:20:27;100105.25;;;15.82;48.67
44138;BME280;29800;55.942;37.314;2022-10-13T06:22:56;100110.75;;;15.61;48.31
44138;BME280;29800;55.942;37.314;2022-10-13T06:25:22;100111.03;;;15.59;49.16
44138;BME280;29800;55.942;37.314;2022-10-13T06:27:48;100106.09;;;15.77;49.26
44138;BME280;29800;55.942;37.314;2022-10-13T06:30:14;100103.63;;;15.91;48.62
44138;BME280;29800;55.942;37.314;2022-10-13T06:32:40;100102.22;;;15.98;48.24
44138;BME280;29800;55.942;37.314;2022-10-13T06:35:06;100104.16;;;15.98;48.35
44138;BME280;29800;55.942;37.314;2022-10-13T06:37:32;100101.38;;;15.98;48.53
44138;BME280;29800;55.942;37.314;2022-10-13T06:39:59;100098.34;;;15.94;48.14
44138;BME280;29800;55.942;37.314;2022-10-13T06:42:25;100103.88;;;16.05;48.43
44138;BME280;29800;55.942;37.314;2022-10-13T06:45:16;100103.03;;;15.58;46.31
44138;BME280;29800;55.942;37.314;2022-10-13T06:47:42;100093.63;;;15.49;48.63
44138;BME280;29800;55.942;37.314;2022-10-13T06:50:08;100103.56;;;15.55;49.74
44138;BME280;29800;55.942;37.314;2022-10-13T06:52:34;100094.72;;;15.37;48.07
44138;BME280;29800;55.942;37.314;2022-10-13T06:55:00;100092.81;;;15.69;49.25
44138;BME280;29800;55.942;37.314;2022-10-13T06:57:29;100102.25;;;14.74;46.56
44138;BME280;29800;55.942;37.314;2022-10-13T06:59:56;100111.25;;;13.78;48.20
44138;BME280;29800;55.942;37.314;2022-10-13T07:02:22;100118.09;;;12.94;50.43
44138;BME280;29800;55.942;37.314;2022-10-13T07:04:48;100131.09;;;12.21;51.68
44138;BME280;29800;55.942;37.314;2022-10-13T07:07:14;100139.53;;;11.51;53.57
44138;BME280;29800;55.942;37.314;2022-10-13T07:09:41;100148.81;;;10.93;55.66
44138;BME280;29800;55.942;37.314;2022-10-13T07:12:07;100156.53;;;10.43;56.87
44138;BME280;29800;55.942;37.314;2022-10-13T07:14:33;100154.09;;;10.11;58.66
44138;BME280;29800;55.942;37.314;2022-10-13T07:16:59;100152.88;;;9.84;59.29
44138;BME280;29800;55.942;37.314;2022-10-13T07:19:25;100153.66;;;9.61;60.08
44138;BME280;29800;55.942;37.314;2022-10-13T07:21:52;100162.72;;;9.31;60.91
44138;BME280;29800;55.942;37.314;2022-10-13T07:24:18;100160.25;;;9.11;62.18
44138;BME280;29800;55.942;37.314;2022-10-13T07:26:44;100171.66;;;8.89;62.55
44138;BME280;29800;55.942;37.314;2022-10-13T07:29:10;100175.22;;;8.71;63.73
44138;BME280;29800;55.942;37.314;2022-10-13T07:31:36;100176.81;;;8.60;63.86
44138;BME280;29800;55.942;37.314;2022-10-13T07:34:02;100175.47;;;8.51;65.00
44138;BME280;29800;55.942;37.314;2022-10-13T07:36:31;100174.03;;;8.42;65.45
44138;BME280;29800;55.942;37.314;2022-10-13T07:38:57;100184.84;;;8.30;65.42
44138;BME280;29800;55.942;37.314;2022-10-13T07:41:23;100181.56;;;8.21;65.82
44138;BME280;29800;55.942;37.314;2022-10-13T07:43:56;100178.50;;;8.11;66.55
44138;BME280;29800;55.942;37.314;2022-10-13T07:46:22;100182.31;;;8.10;67.28
44138;BME280;29800;55.942;37.314;2022-10-13T07:48:51;100177.75;;;8.04;67.03
44138;BME280;29800;55.942;37.314;2022-10-13T07:51:19;100179.00;;;8.01;68.26
44138;BME280;29800;55.942;37.314;2022-10-13T07:53:46;100181.13;;;7.99;68.34
44138;BME280;29800;55.942;37.314;2022-10-13T07:56:14;100174.88;;;7.99;68.32
44138;BME280;29800;55.942;37.314;2022-10-13T07:58:45;100183.47;;;7.96;68.63
44138;BME280;29800;55.942;37.314;2022-10-13T08:01:12;100187.09;;;7.89;69.08
44138;BME280;29800;55.942;37.314;2022-10-13T08:03:39;100183.59;;;7.82;69.13
44138;BME280;29800;55.942;37.314;2022-10-13T08:06:06;100186.53;;;7.81;69.43
44138;BME280;29800;55.942;37.314;2022-10-13T08:08:33;100185.75;;;8.49;70.12
44138;BME280;29800;55.942;37.314;2022-10-13T08:11:05;100189.06;;;9.25;69.23
44138;BME280;29800;55.942;37.314;2022-10-13T08:13:33;100181.63;;;9.74;66.71
44138;BME280;29800;55.942;37.314;2022-10-13T08:16:09;100185.38;;;10.04;64.54
44138;BME280;29800;55.942;37.314;2022-10-13T08:18:35;100177.88;;;9.87;64.16
44138;BME280;29800;55.942;37.314;2022-10-13T08:21:03;100180.41;;;9.59;63.88
44138;BME280;29800;55.942;37.314;2022-10-13T08:23:29;100180.56;;;9.33;64.75
44138;BME280;29800;55.942;37.314;2022-10-13T08:25:55;100176.88;;;9.09;64.13
44138;BME280;29800;55.942;37.314;2022-10-13T08:28:25;100180.81;;;8.95;65.54
44138;BME280;29800;55.942;37.314;2022-10-13T08:30:55;100186.66;;;8.80;65.81
44138;BME280;29800;55.942;37.314;2022-10-13T08:33:23;100188.06;;;8.71;65.60
44138;BME280;29800;55.942;37.314;2022-10-13T08:35:50;100186.66;;;8.61;66.01
44138;BME280;29800;55.942;37.314;2022-10-13T08:38:18;100189.47;;;8.55;66.39
44138;BME280;29800;55.942;37.314;2022-10-13T08:40:48;100195.75;;;8.55;66.27
44138;BME280;29800;55.942;37.314;2022-10-13T08:43:17;100186.38;;;8.51;66.27
44138;BME280;29800;55.942;37.314;2022-10-13T08:45:45;100192.94;;;8.43;66.61
44138;BME280;29800;55.942;37.314;2022-10-13T08:48:17;100187.91;;;8.40;66.74
44138;BME280;29800;55.942;37.314;2022-10-13T08:50:48;100191.06;;;8.37;66.96
44138;BME280;29800;55.942;37.314;2022-10-13T08:53:29;100191.03;;;8.44;67.22
44138;BME280;29800;55.942;37.314;2022-10-13T08:56:08;100191.03;;;8.44;66.87
44138;BME280;29800;55.942;37.314;2022-10-13T08:58:38;100196.91;;;8.41;66.71
44138;BME280;29800;55.942;37.314;2022-10-13T09:01:15;100191.28;;;8.36;66.71
44138;BME280;29800;55.942;37.314;2022-10-13T09:06:26;100197.91;;;8.28;67.17
44138;BME280;29800;55.942;37.314;2022-10-13T09:08:58;100189.25;;;8.31;67.41
44138;BME280;29800;55.942;37.314;2022-10-13T09:11:30;100189.56;;;8.41;67.58
44138;BME280;29800;55.942;37.314;2022-10-13T09:14:01;100195.00;;;8.48;67.55
44138;BME280;29800;55.942;37.314;2022-10-13T09:16:36;100197.88;;;8.53;66.94
44138;BME280;29800;55.942;37.314;2022-10-13T09:19:12;100194.94;;;8.55;66.85
44138;BME280;29800;55.942;37.314;2022-10-13T09:21:38;100190.28;;;8.55;67.42
44138;BME280;29800;55.942;37.314;2022-10-13T09:24:13;100189.84;;;8.58;67.46
44138;BME280;29800;55.942;37.314;2022-10-13T09:26:40;100187.56;;;8.55;66.61
44138;BME280;29800;55.942;37.314;2022-10-13T09:29:09;100193.41;;;8.59;67.77
44138;BME280;29800;55.942;37.314;2022-10-13T09:31:36;100185.63;;;8.62;67.37
44138;BME280;29800;55.942;37.314;2022-10-13T09:37:08;100175.38;;;8.76;67.46
44138;BME280;29800;55.942;37.314;2022-10-13T09:39:41;100181.66;;;8.77;66.74
44138;BME280;29800;55.942;37.314;2022-10-13T09:44:45;100186.91;;;8.78;65.91
44138;BME280;29800;55.942;37.314;2022-10-13T09:47:22;100184.09;;;8.85;65.82
44138;BME280;29800;55.942;37.314;2022-10-13T09:50:15;100181.13;;;8.87;65.68
44138;BME280;29800;55.942;37.314;2022-10-13T09:52:45;100185.63;;;8.81;64.81
44138;BME280;29800;55.942;37.314;2022-10-13T09:55:31;100182.81;;;8.88;64.99
44138;BME280;29800;55.942;37.314;2022-10-13T09:58:13;100186.13;;;8.90;65.09
44138;BME280;29800;55.942;37.314;2022-10-13T10:00:48;100178.72;;;8.97;65.14
44138;BME280;29800;55.942;37.314;2022-10-13T10:03:30;100183.00;;;9.05;64.77
44138;BME280;29800;55.942;37.314;2022-10-13T10:06:05;100179.69;;;9.02;64.16
44138;BME280;29800;55.942;37.314;2022-10-13T10:11:37;100182.09;;;9.11;64.05
44138;BME280;29800;55.942;37.314;2022-10-13T10:16:41;100188.31;;;9.18;63.88
44138;BME280;29800;55.942;37.314;2022-10-13T10:19:19;100180.88;;;9.25;63.77
44138;BME280;29800;55.942;37.314;2022-10-13T10:22:19;100176.28;;;9.37;64.05
44138;BME280;29800;55.942;37.314;2022-10-13T10:25:17;100182.88;;;9.48;62.91
44138;BME280;29800;55.942;37.314;2022-10-13T10:45:19;100187.25;;;9.49;61.30
44138;BME280;29800;55.942;37.314;2022-10-13T10:47:50;100188.94;;;9.50;60.74
44138;BME280;29800;55.942;37.314;2022-10-13T10:50:27;100185.63;;;9.60;60.46
44138;BME280;29800;55.942;37.314;2022-10-13T10:53:08;100190.88;;;9.62;59.96
44138;BME280;29800;55.942;37.314;2022-10-13T10:55:54;100183.13;;;9.59;59.91
44138;BME280;29800;55.942;37.314;2022-10-13T11:01:57;100180.75;;;9.62;60.23
44138;BME280;29800;55.942;37.314;2022-10-13T11:04:43;100168.31;;;9.66;59.84
44138;BME280;29800;55.942;37.314;2022-10-13T11:10:19;100184.03;;;9.83;60.16
44138;BME280;29800;55.942;37.314;2022-10-13T11:15:43;100179.41;;;9.95;59.33
44138;BME280;29800;55.942;37.314;2022-10-13T11:21:16;100169.69;;;10.11;59.13
44138;BME280;29800;55.942;37.314;2022-10-13T11:23:54;100169.56;;;10.18;58.85
44138;BME280;29800;55.942;37.314;2022-10-13T11:26:31;100160.88;;;10.21;57.84
44138;BME280;29800;55.942;37.314;2022-10-13T11:29:15;100159.47;;;10.30;57.79
44138;BME280;29800;55.942;37.314;2022-10-13T11:31:53;100167.25;;;10.33;57.87
44138;BME280;29800;55.942;37.314;2022-10-13T11:34:32;100158.03;;;10.27;57.10
44138;BME280;29800;55.942;37.314;2022-10-13T11:37:01;100155.53;;;10.26;57.20
44138;BME280;29800;55.942;37.314;2022-10-13T11:39:56;100158.84;;;10.28;57.30
44138;BME280;29800;55.942;37.314;2022-10-13T11:51:24;100169.81;;;10.28;57.27
44138;BME280;29800;55.942;37.314;2022-10-13T11:56:51;100168.84;;;10.10;57.47
44138;BME280;29800;55.942;37.314;2022-10-13T11:59:30;100168.97;;;10.04;57.55
44138;BME280;29800;55.942;37.314;2022-10-13T12:04:35;100164.66;;;9.84;57.46
44138;BME280;29800;55.942;37.314;2022-10-13T12:07:14;100168.44;;;9.83;57.98
44138;BME280;29800;55.942;37.314;2022-10-13T12:09:53;100166.53;;;9.84;58.53
44138;BME280;29800;55.942;37.314;2022-10-13T12:12:26;100160.03;;;9.85;58.52
44138;BME280;29800;55.942;37.314;2022-10-13T12:14:55;100161.59;;;9.92;59.02
44138;BME280;29800;55.942;37.314;2022-10-13T12:19:49;100158.28;;;10.14;58.13
44138;BME280;29800;55.942;37.314;2022-10-13T12:22:18;100161.16;;;10.43;58.61
44138;BME280;29800;55.942;37.314;2022-10-13T12:24:59;100164.47;;;10.57;58.44
44138;BME280;29800;55.942;37.314;2022-10-13T12:27:27;100161.16;;;10.43;56.66
44138;BME280;29800;55.942;37.314;2022-10-13T12:29:53;100160.91;;;10.33;56.66
44138;BME280;29800;55.942;37.314;2022-10-13T12:32:28;100154.72;;;10.25;56.83
44138;BME280;29800;55.942;37.314;2022-10-13T12:35:27;100158.63;;;10.18;57.21
44138;BME280;29800;55.942;37.314;2022-10-13T12:38:06;100163.50;;;10.04;57.72
44138;BME280;29800;55.942;37.314;2022-10-13T12:40:44;100158.97;;;10.09;58.23
44138;BME280;29800;55.942;37.314;2022-10-13T12:43:21;100161.25;;;10.12;57.70
44138;BME280;29800;55.942;37.314;2022-10-13T12:45:52;100168.63;;;10.00;56.91
44138;BME280;29800;55.942;37.314;2022-10-13T12:48:35;100174.34;;;10.22;62.07
44138;BME280;29800;55.942;37.314;2022-10-13T12:51:24;100168.75;;;10.05;58.06
44138;BME280;29800;55.942;37.314;2022-10-13T12:53:57;100166.06;;;9.87;57.84
44138;BME280;29800;55.942;37.314;2022-10-13T12:56:28;100174.84;;;9.77;57.81
44138;BME280;29800;55.942;37.314;2022-10-13T12:58:58;100177.69;;;9.70;58.66
44138;BME280;29800;55.942;37.314;2022-10-13T13:01:32;100163.91;;;9.65;58.43
44138;BME280;29800;55.942;37.314;2022-10-13T13:06:55;100184.16;;;9.46;58.81
44138;BME280;29800;55.942;37.314;2022-10-13T13:09:34;100182.69;;;9.31;58.42
44138;BME280;29800;55.942;37.314;2022-10-13T13:12:28;100186.19;;;9.20;59.11
44138;BME280;29800;55.942;37.314;2022-10-13T13:14:58;100187.13;;;9.14;59.43
44138;BME280;29800;55.942;37.314;2022-10-13T13:17:41;100188.84;;;9.08;59.00
44138;BME280;29800;55.942;37.314;2022-10-13T13:22:53;100185.44;;;9.13;59.23
44138;BME280;29800;55.942;37.314;2022-10-13T13:25:19;100187.13;;;9.14;58.72
44138;BME280;29800;55.942;37.314;2022-10-13T13:27:47;100183.78;;;9.12;58.99
44138;BME280;29800;55.942;37.314;2022-10-13T13:30:24;100181.19;;;9.17;58.92
44138;BME280;29800;55.942;37.314;2022-10-13T13:32:53;100177.00;;;9.14;58.45
44138;BME280;29800;55.942;37.314;2022-10-13T13:35:19;100187.13;;;9.14;59.02
44138;BME280;29800;55.942;37.314;2022-10-13T13:37:50;100189.84;;;9.14;58.34
44138;BME280;29800;55.942;37.314;2022-10-13T13:40:26;100186.56;;;9.24;59.40
44138;BME280;29800;55.942;37.314;2022-10-13T13:42:53;100193.09;;;9.23;59.82
44138;BME280;29800;55.942;37.314;2022-10-13T13:45:23;100192.44;;;9.09;57.79
44138;BME280;29800;55.942;37.314;2022-10-13T13:47:59;100192.13;;;8.98;57.92
44138;BME280;29800;55.942;37.314;2022-10-13T13:50:30;100187.44;;;8.87;58.96
44138;BME280;29800;55.942;37.314;2022-10-13T13:52:58;100196.16;;;8.77;58.36
44138;BME280;29800;55.942;37.314;2022-10-13T13:55:27;100188.88;;;8.71;58.17
44138;BME280;29800;55.942;37.314;2022-10-13T13:57:57;100200.47;;;8.67;58.51
44138;BME280;29800;55.942;37.314;2022-10-13T14:00:23;100193.41;;;8.59;59.17
44138;BME280;29800;55.942;37.314;2022-10-13T14:02:57;100192.81;;;8.57;58.74
44138;BME280;29800;55.942;37.314;2022-10-13T14:05:23;100196.19;;;8.52;59.40
44138;BME280;29800;55.942;37.314;2022-10-13T14:07:56;100193.91;;;8.49;59.82
44138;BME280;29800;55.942;37.314;2022-10-13T14:10:24;100192.53;;;8.40;59.70
44138;BME280;29800;55.942;37.314;2022-10-13T14:12:53;100197.34;;;8.38;59.82
44138;BME280;29800;55.942;37.314;2022-10-13T14:15:31;100195.31;;;8.33;59.79
44138;BME280;29800;55.942;37.314;2022-10-13T14:18:00;100197.63;;;8.29;60.26
44138;BME280;29800;55.942;37.314;2022-10-13T14:20:26;100199.59;;;8.22;60.07
44138;BME280;29800;55.942;37.314;2022-10-13T14:22:55;100189.59;;;8.16;60.41
44138;BME280;29800;55.942;37.314;2022-10-13T14:25:21;100199.72;;;8.09;60.52
44138;BME280;29800;55.942;37.314;2022-10-13T14:27:53;100194.09;;;8.04;60.36
44138;BME280;29800;55.942;37.314;2022-10-13T14:30:20;100199.63;;;7.97;61.58
44138;BME280;29800;55.942;37.314;2022-10-13T14:32:46;100199.66;;;7.90;61.33
44138;BME280;29800;55.942;37.314;2022-10-13T14:35:12;100195.09;;;7.84;61.66
44138;BME280;29800;55.942;37.314;2022-10-13T14:37:38;100192.63;;;7.76;61.58